sensor_id;sensor_type;location;lat;lon;timestamp;P1;durP1;ratioP1;P2;durP2;ratioP2
72864;SDS011;61000;48.120;11.548;2023-08-06T00:01:07;6.97;;;5.95;;
72864;SDS011;61000;48.120;11.548;2023-08-06T00:03:33;8.38;;;6.10;;
72864;SDS011;61000;48.120;11.548;2023-08-06T00:06:00;7.05;;;5.90;;
72864;SDS011;61000;48.120;11.548;2023-08-06T00:08:27;7.85;;;6.05;;
72864;SDS011;61000;48.120;11.548;2023-08-06T00:10:54;6.60;;;5.55;;
72864;SDS011;61000;48.120;11.548;2023-08-06T00:13:21;7.28;;;5.47;;
72864;SDS011;61000;48.120;11.548;2023-08-06T00:15:49;6.78;;;5.65;;
72864;SDS011;61000;48.120;11.548;2023-08-06T00:18:15;6.68;;;5.93;;
72864;SDS011;61000;48.120;11.548;2023-08-06T00:20:41;5.97;;;5.38;;
72864;SDS011;61000;48.120;11.548;2023-08-06T00:23:08;5.97;;;5.38;;
72864;SDS011;61000;48.120;11.548;2023-08-06T00:25:36;6.68;;;5.43;;
72864;SDS011;61000;48.120;11.548;2023-08-06T00:28:03;9.00;;;4.57;;
72864;SDS011;61000;48.120;11.548;2023-08-06T00:30:31;8.30;;;4.53;;
72864;SDS011;61000;48.120;11.548;2023-08-06T00:32:59;6.00;;;4.45;;
72864;SDS011;61000;48.120;11.548;2023-08-06T00:35:26;5.20;;;4.70;;
72864;SDS011;61000;48.120;11.548;2023-08-06T00:37:53;5.10;;;4.60;;
72864;SDS011;61000;48.120;11.548;2023-08-06T00:40:20;5.32;;;4.50;;
72864;SDS011;61000;48.120;11.548;2023-08-06T00:42:48;5.30;;;4.35;;
72864;SDS011;61000;48.120;11.548;2023-08-06T00:45:15;5.13;;;4.53;;
72864;SDS011;61000;48.120;11.548;2023-08-06T00:47:41;5.30;;;4.50;;
72864;SDS011;61000;48.120;11.548;2023-08-06T00:50:09;6.68;;;4.82;;
72864;SDS011;61000;48.120;11.548;2023-08-06T00:52:36;5.43;;;4.38;;
72864;SDS011;61000;48.120;11.548;2023-08-06T00:55:04;5.72;;;4.57;;
72864;SDS011;61000;48.120;11.548;2023-08-06T00:57:32;4.45;;;3.97;;
72864;SDS011;61000;48.120;11.548;2023-08-06T00:59:59;11.13;;;4.28;;
72864;SDS011;61000;48.120;11.548;2023-08-06T01:02:26;4.93;;;4.43;;
72864;SDS011;61000;48.120;11.548;2023-08-06T01:04:53;6.00;;;4.95;;
72864;SDS011;61000;48.120;11.548;2023-08-06T01:07:25;4.45;;;4.00;;
72864;SDS011;61000;48.120;11.548;2023-08-06T01:10:10;6.75;;;3.83;;
72864;SDS011;61000;48.120;11.548;2023-08-06T01:12:59;5.43;;;4.45;;
72864;SDS011;61000;48.120;11.548;2023-08-06T01:15:35;6.10;;;4.38;;
72864;SDS011;61000;48.120;11.548;2023-08-06T01:18:07;9.68;;;5.90;;
72864;SDS011;61000;48.120;11.548;2023-08-06T01:20:36;6.05;;;5.30;;
72864;SDS011;61000;48.120;11.548;2023-08-06T01:23:03;6.80;;;5.53;;
72864;SDS011;61000;48.120;11.548;2023-08-06T01:25:31;6.40;;;5.72;;
72864;SDS011;61000;48.120;11.548;2023-08-06T01:28:03;9.00;;;5.72;;
72864;SDS011;61000;48.120;11.548;2023-08-06T01:30:37;7.82;;;6.00;;
72864;SDS011;61000;48.120;11.548;2023-08-06T01:33:06;7.95;;;6.38;;
72864;SDS011;61000;48.120;11.548;2023-08-06T01:35:40;8.38;;;5.88;;
72864;SDS011;61000;48.120;11.548;2023-08-06T01:38:08;7.43;;;6.25;;
72864;SDS011;61000;48.120;11.548;2023-08-06T01:40:35;8.02;;;6.38;;
72864;SDS011;61000;48.120;11.548;2023-08-06T01:43:02;8.07;;;6.10;;
72864;SDS011;61000;48.120;11.548;2023-08-06T01:45:29;7.15;;;5.93;;
72864;SDS011;61000;48.120;11.548;2023-08-06T01:47:55;10.45;;;5.93;;
72864;SDS011;61000;48.120;11.548;2023-08-06T01:50:23;7.05;;;5.60;;
72864;SDS011;61000;48.120;11.548;2023-08-06T01:52:52;8.93;;;6.43;;
72864;SDS011;61000;48.120;11.548;2023-08-06T01:55:19;9.73;;;6.03;;
72864;SDS011;61000;48.120;11.548;2023-08-06T01:57:46;7.30;;;5.47;;
72864;SDS011;61000;48.120;11.548;2023-08-06T02:00:13;8.00;;;6.20;;
72864;SDS011;61000;48.120;11.548;2023-08-06T02:02:40;9.02;;;6.20;;
72864;SDS011;61000;48.120;11.548;2023-08-06T02:05:06;8.15;;;5.65;;
72864;SDS011;61000;48.120;11.548;2023-08-06T02:07:33;7.72;;;5.35;;
72864;SDS011;61000;48.120;11.548;2023-08-06T02:10:02;7.28;;;5.38;;
72864;SDS011;61000;48.120;11.548;2023-08-06T02:12:28;5.75;;;4.97;;
72864;SDS011;61000;48.120;11.548;2023-08-06T02:14:55;6.05;;;4.57;;
72864;SDS011;61000;48.120;11.548;2023-08-06T02:17:22;5.60;;;4.78;;
72864;SDS011;61000;48.120;11.548;2023-08-06T02:19:49;5.82;;;5.05;;
72864;SDS011;61000;48.120;11.548;2023-08-06T02:22:16;5.28;;;4.40;;
72864;SDS011;61000;48.120;11.548;2023-08-06T02:24:43;4.72;;;4.10;;
72864;SDS011;61000;48.120;11.548;2023-08-06T02:27:11;5.32;;;4.70;;
72864;SDS011;61000;48.120;11.548;2023-08-06T02:29:39;4.30;;;3.85;;
72864;SDS011;61000;48.120;11.548;2023-08-06T02:32:07;5.28;;;4.22;;
72864;SDS011;61000;48.120;11.548;2023-08-06T02:34:34;5.28;;;3.67;;
72864;SDS011;61000;48.120;11.548;2023-08-06T02:37:00;8.27;;;4.45;;
72864;SDS011;61000;48.120;11.548;2023-08-06T02:39:27;4.80;;;3.92;;
72864;SDS011;61000;48.120;11.548;2023-08-06T02:41:57;4.30;;;3.90;;
72864;SDS011;61000;48.120;11.548;2023-08-06T02:44:26;5.70;;;3.97;;
72864;SDS011;61000;48.120;11.548;2023-08-06T02:46:53;4.20;;;3.80;;
72864;SDS011;61000;48.120;11.548;2023-08-06T02:49:20;4.38;;;3.97;;
72864;SDS011;61000;48.120;11.548;2023-08-06T02:51:47;4.13;;;3.67;;
72864;SDS011;61000;48.120;11.548;2023-08-06T02:54:14;5.03;;;4.10;;
72864;SDS011;61000;48.120;11.548;2023-08-06T02:56:42;5.13;;;4.03;;
72864;SDS011;61000;48.120;11.548;2023-08-06T02:59:31;6.18;;;4.13;;
72864;SDS011;61000;48.120;11.548;2023-08-06T03:02:06;4.68;;;3.85;;
72864;SDS011;61000;48.120;11.548;2023-08-06T03:05:08;4.78;;;3.75;;
72864;SDS011;61000;48.120;11.548;2023-08-06T03:07:39;4.43;;;3.90;;
72864;SDS011;61000;48.120;11.548;2023-08-06T03:10:13;4.70;;;4.03;;
72864;SDS011;61000;48.120;11.548;2023-08-06T03:12:41;5.57;;;3.72;;
72864;SDS011;61000;48.120;11.548;2023-08-06T03:15:10;4.00;;;3.60;;
72864;SDS011;61000;48.120;11.548;2023-08-06T03:17:37;4.03;;;3.63;;
72864;SDS011;61000;48.120;11.548;2023-08-06T03:20:06;4.90;;;3.72;;
72864;SDS011;61000;48.120;11.548;2023-08-06T03:22:34;5.07;;;4.13;;
72864;SDS011;61000;48.120;11.548;2023-08-06T03:25:01;5.30;;;3.70;;
72864;SDS011;61000;48.120;11.548;2023-08-06T03:27:29;3.97;;;3.58;;
72864;SDS011;61000;48.120;11.548;2023-08-06T03:29:55;6.45;;;3.38;;
72864;SDS011;61000;48.120;11.548;2023-08-06T03:32:26;5.15;;;3.60;;
72864;SDS011;61000;48.120;11.548;2023-08-06T03:34:54;7.43;;;4.18;;
72864;SDS011;61000;48.120;11.548;2023-08-06T03:37:24;5.18;;;3.60;;
72864;SDS011;61000;48.120;11.548;2023-08-06T03:39:51;4.15;;;3.75;;
72864;SDS011;61000;48.120;11.548;2023-08-06T03:42:18;4.45;;;3.60;;
72864;SDS011;61000;48.120;11.548;2023-08-06T03:44:45;5.35;;;3.90;;
72864;SDS011;61000;48.120;11.548;2023-08-06T03:47:12;4.93;;;3.22;;
72864;SDS011;61000;48.120;11.548;2023-08-06T03:49:41;3.42;;;3.13;;
72864;SDS011;61000;48.120;11.548;2023-08-06T03:52:08;3.17;;;2.88;;
72864;SDS011;61000;48.120;11.548;2023-08-06T03:54:35;3.42;;;3.13;;
72864;SDS011;61000;48.120;11.548;2023-08-06T03:57:02;4.55;;;3.30;;
72864;SDS011;61000;48.120;11.548;2023-08-06T03:59:31;6.32;;;3.38;;
72864;SDS011;61000;48.120;11.548;2023-08-06T04:01:58;3.88;;;3.17;;
72864;SDS011;61000;48.120;11.548;2023-08-06T04:04:24;3.60;;;2.85;;
72864;SDS011;61000;48.120;11.548;2023-08-06T04:06:53;3.85;;;3.22;;
72864;SDS011;61000;48.120;11.548;2023-08-06T04:09:21;4.20;;;2.90;;
72864;SDS011;61000;48.120;11.548;2023-08-06T04:11:48;4.07;;;3.10;;
72864;SDS011;61000;48.120;11.548;2023-08-06T04:14:15;3.42;;;3.03;;
72864;SDS011;61000;48.120;11.548;2023-08-06T04:16:42;3.78;;;3.13;;
72864;SDS011;61000;48.120;11.548;2023-08-06T04:19:09;4.47;;;3.45;;
72864;SDS011;61000;48.120;11.548;2023-08-06T04:21:36;4.97;;;3.10;;
72864;SDS011;61000;48.120;11.548;2023-08-06T04:24:04;5.68;;;2.72;;
72864;SDS011;61000;48.120;11.548;2023-08-06T04:26:31;3.88;;;2.70;;
72864;SDS011;61000;48.120;11.548;2023-08-06T04:28:59;4.50;;;3.58;;
72864;SDS011;61000;48.120;11.548;2023-08-06T04:31:27;3.45;;;3.08;;
72864;SDS011;61000;48.120;11.548;2023-08-06T04:33:57;3.13;;;2.83;;
72864;SDS011;61000;48.120;11.548;2023-08-06T04:36:24;4.97;;;3.15;;
72864;SDS011;61000;48.120;11.548;2023-08-06T04:38:51;5.20;;;2.78;;
72864;SDS011;61000;48.120;11.548;2023-08-06T04:41:19;3.22;;;2.92;;
72864;SDS011;61000;48.120;11.548;2023-08-06T04:43:46;4.00;;;2.75;;
72864;SDS011;61000;48.120;11.548;2023-08-06T04:46:13;2.85;;;2.50;;
72864;SDS011;61000;48.120;11.548;2023-08-06T04:48:40;4.05;;;2.58;;
72864;SDS011;61000;48.120;11.548;2023-08-06T04:51:07;5.75;;;2.88;;
72864;SDS011;61000;48.120;11.548;2023-08-06T04:53:34;3.42;;;3.13;;
72864;SDS011;61000;48.120;11.548;2023-08-06T04:56:00;3.17;;;2.80;;
72864;SDS011;61000;48.120;11.548;2023-08-06T04:58:29;3.22;;;2.80;;
72864;SDS011;61000;48.120;11.548;2023-08-06T05:00:55;4.40;;;3.17;;
72864;SDS011;61000;48.120;11.548;2023-08-06T05:03:22;3.85;;;2.65;;
72864;SDS011;61000;48.120;11.548;2023-08-06T05:05:49;3.10;;;2.40;;
72864;SDS011;61000;48.120;11.548;2023-08-06T05:08:16;3.00;;;2.70;;
72864;SDS011;61000;48.120;11.548;2023-08-06T05:10:43;4.38;;;2.85;;
72864;SDS011;61000;48.120;11.548;2023-08-06T05:13:10;2.95;;;2.65;;
72864;SDS011;61000;48.120;11.548;2023-08-06T05:15:38;3.03;;;2.72;;
72864;SDS011;61000;48.120;11.548;2023-08-06T05:18:07;2.70;;;2.50;;
72864;SDS011;61000;48.120;11.548;2023-08-06T05:20:35;3.55;;;2.80;;
72864;SDS011;61000;48.120;11.548;2023-08-06T05:23:03;3.20;;;2.90;;
72864;SDS011;61000;48.120;11.548;2023-08-06T05:25:30;4.68;;;2.45;;
72864;SDS011;61000;48.120;11.548;2023-08-06T05:27:57;4.90;;;3.17;;
72864;SDS011;61000;48.120;11.548;2023-08-06T05:30:24;3.70;;;2.58;;
72864;SDS011;61000;48.120;11.548;2023-08-06T05:32:52;3.67;;;2.58;;
72864;SDS011;61000;48.120;11.548;2023-08-06T05:35:20;5.57;;;2.60;;
72864;SDS011;61000;48.120;11.548;2023-08-06T05:37:47;4.65;;;3.10;;
72864;SDS011;61000;48.120;11.548;2023-08-06T05:40:14;4.40;;;2.50;;
72864;SDS011;61000;48.120;11.548;2023-08-06T05:42:41;5.90;;;2.70;;
72864;SDS011;61000;48.120;11.548;2023-08-06T05:45:08;2.53;;;2.33;;
72864;SDS011;61000;48.120;11.548;2023-08-06T05:47:36;4.10;;;2.78;;
72864;SDS011;61000;48.120;11.548;2023-08-06T05:50:04;2.75;;;2.45;;
72864;SDS011;61000;48.120;11.548;2023-08-06T05:52:32;3.17;;;2.75;;
72864;SDS011;61000;48.120;11.548;2023-08-06T05:54:59;4.13;;;2.22;;
72864;SDS011;61000;48.120;11.548;2023-08-06T05:57:26;4.25;;;2.58;;
72864;SDS011;61000;48.120;11.548;2023-08-06T05:59:53;2.35;;;2.15;;
72864;SDS011;61000;48.120;11.548;2023-08-06T06:02:20;2.92;;;2.22;;
72864;SDS011;61000;48.120;11.548;2023-08-06T06:04:47;2.40;;;2.20;;
72864;SDS011;61000;48.120;11.548;2023-08-06T06:07:15;2.30;;;2.10;;
72864;SDS011;61000;48.120;11.548;2023-08-06T06:09:42;3.05;;;2.55;;
72864;SDS011;61000;48.120;11.548;2023-08-06T06:12:09;3.75;;;2.20;;
72864;SDS011;61000;48.120;11.548;2023-08-06T06:14:36;3.28;;;1.95;;
72864;SDS011;61000;48.120;11.548;2023-08-06T06:17:03;3.20;;;2.28;;
72864;SDS011;61000;48.120;11.548;2023-08-06T06:19:30;2.45;;;2.25;;
72864;SDS011;61000;48.120;11.548;2023-08-06T06:21:57;2.53;;;1.80;;
72864;SDS011;61000;48.120;11.548;2023-08-06T06:24:25;2.60;;;1.88;;
72864;SDS011;61000;48.120;11.548;2023-08-06T06:26:52;2.67;;;2.05;;
72864;SDS011;61000;48.120;11.548;2023-08-06T06:29:19;2.35;;;2.05;;
72864;SDS011;61000;48.120;11.548;2023-08-06T06:31:46;2.53;;;1.65;;
72864;SDS011;61000;48.120;11.548;2023-08-06T06:34:13;2.30;;;1.65;;
72864;SDS011;61000;48.120;11.548;2023-08-06T06:36:40;2.70;;;1.83;;
72864;SDS011;61000;48.120;11.548;2023-08-06T06:39:07;2.10;;;1.90;;
72864;SDS011;61000;48.120;11.548;2023-08-06T06:41:36;2.50;;;1.98;;
72864;SDS011;61000;48.120;11.548;2023-08-06T06:44:10;2.20;;;1.50;;
72864;SDS011;61000;48.120;11.548;2023-08-06T06:46:37;1.80;;;1.70;;
72864;SDS011;61000;48.120;11.548;2023-08-06T06:49:04;2.90;;;1.90;;
72864;SDS011;61000;48.120;11.548;2023-08-06T06:51:31;6.38;;;2.03;;
72864;SDS011;61000;48.120;11.548;2023-08-06T06:53:58;2.10;;;1.55;;
72864;SDS011;61000;48.120;11.548;2023-08-06T06:56:25;1.98;;;1.75;;
72864;SDS011;61000;48.120;11.548;2023-08-06T06:58:53;2.22;;;1.88;;
72864;SDS011;61000;48.120;11.548;2023-08-06T07:01:20;2.13;;;1.83;;
72864;SDS011;61000;48.120;11.548;2023-08-06T07:03:47;1.60;;;1.50;;
72864;SDS011;61000;48.120;11.548;2023-08-06T07:06:14;1.40;;;1.30;;
72864;SDS011;61000;48.120;11.548;2023-08-06T07:08:43;2.80;;;1.63;;
72864;SDS011;61000;48.120;11.548;2023-08-06T07:11:10;1.35;;;1.25;;
72864;SDS011;61000;48.120;11.548;2023-08-06T07:13:37;1.42;;;1.20;;
72864;SDS011;61000;48.120;11.548;2023-08-06T07:16:05;3.20;;;1.00;;
72864;SDS011;61000;48.120;11.548;2023-08-06T07:18:32;1.20;;;1.10;;
72864;SDS011;61000;48.120;11.548;2023-08-06T07:20:59;1.55;;;1.08;;
72864;SDS011;61000;48.120;11.548;2023-08-06T07:23:26;1.85;;;1.10;;
72864;SDS011;61000;48.120;11.548;2023-08-06T07:25:53;1.10;;;1.00;;
72864;SDS011;61000;48.120;11.548;2023-08-06T07:28:20;2.22;;;1.17;;
72864;SDS011;61000;48.120;11.548;2023-08-06T07:30:47;0.98;;;0.82;;
72864;SDS011;61000;48.120;11.548;2023-08-06T07:33:16;2.50;;;1.10;;
72864;SDS011;61000;48.120;11.548;2023-08-06T07:35:42;2.60;;;1.98;;
72864;SDS011;61000;48.120;11.548;2023-08-06T07:38:09;1.13;;;1.05;;
72864;SDS011;61000;48.120;11.548;2023-08-06T07:40:36;5.13;;;1.20;;
72864;SDS011;61000;48.120;11.548;2023-08-06T07:43:03;2.08;;;1.42;;
72864;SDS011;61000;48.120;11.548;2023-08-06T07:45:32;2.00;;;1.15;;
72864;SDS011;61000;48.120;11.548;2023-08-06T07:48:00;1.10;;;1.00;;
72864;SDS011;61000;48.120;11.548;2023-08-06T07:50:28;1.27;;;1.17;;
72864;SDS011;61000;48.120;11.548;2023-08-06T07:52:55;2.97;;;1.35;;
72864;SDS011;61000;48.120;11.548;2023-08-06T07:55:23;1.02;;;1.00;;
72864;SDS011;61000;48.120;11.548;2023-08-06T07:57:49;1.00;;;1.00;;
72864;SDS011;61000;48.120;11.548;2023-08-06T08:00:16;1.65;;;1.20;;
72864;SDS011;61000;48.120;11.548;2023-08-06T08:02:44;1.60;;;1.10;;
72864;SDS011;61000;48.120;11.548;2023-08-06T08:05:12;3.60;;;1.10;;
72864;SDS011;61000;48.120;11.548;2023-08-06T08:07:42;1.33;;;1.20;;
72864;SDS011;61000;48.120;11.548;2023-08-06T08:10:09;1.08;;;0.98;;
72864;SDS011;61000;48.120;11.548;2023-08-06T08:12:36;2.10;;;1.17;;
72864;SDS011;61000;48.120;11.548;2023-08-06T08:15:03;2.17;;;1.35;;
72864;SDS011;61000;48.120;11.548;2023-08-06T08:17:31;4.00;;;1.00;;
72864;SDS011;61000;48.120;11.548;2023-08-06T08:19:57;1.38;;;1.00;;
72864;SDS011;61000;48.120;11.548;2023-08-06T08:22:24;1.08;;;0.98;;
72864;SDS011;61000;48.120;11.548;2023-08-06T08:24:52;3.90;;;1.40;;
72864;SDS011;61000;48.120;11.548;2023-08-06T08:27:19;1.15;;;0.98;;
72864;SDS011;61000;48.120;11.548;2023-08-06T08:29:46;1.70;;;0.88;;
72864;SDS011;61000;48.120;11.548;2023-08-06T08:32:13;1.42;;;0.70;;
72864;SDS011;61000;48.120;11.548;2023-08-06T08:34:40;1.13;;;0.80;;
72864;SDS011;61000;48.120;11.548;2023-08-06T08:37:07;1.10;;;0.80;;
72864;SDS011;61000;48.120;11.548;2023-08-06T08:39:33;2.47;;;0.80;;
72864;SDS011;61000;48.120;11.548;2023-08-06T08:42:02;0.90;;;0.70;;
72864;SDS011;61000;48.120;11.548;2023-08-06T08:44:29;1.77;;;0.60;;
72864;SDS011;61000;48.120;11.548;2023-08-06T08:46:57;1.42;;;0.85;;
72864;SDS011;61000;48.120;11.548;2023-08-06T08:49:25;1.23;;;0.50;;
72864;SDS011;61000;48.120;11.548;2023-08-06T08:51:53;4.03;;;0.75;;
72864;SDS011;61000;48.120;11.548;2023-08-06T08:54:22;0.77;;;0.77;;
72864;SDS011;61000;48.120;11.548;2023-08-06T08:56:50;1.55;;;0.90;;
72864;SDS011;61000;48.120;11.548;2023-08-06T08:59:18;2.13;;;0.65;;
72864;SDS011;61000;48.120;11.548;2023-08-06T09:01:45;1.05;;;0.70;;
72864;SDS011;61000;48.120;11.548;2023-08-06T09:04:16;0.90;;;0.80;;
72864;SDS011;61000;48.120;11.548;2023-08-06T09:06:44;2.90;;;0.70;;
72864;SDS011;61000;48.120;11.548;2023-08-06T09:09:16;1.65;;;0.65;;
72864;SDS011;61000;48.120;11.548;2023-08-06T09:11:48;1.83;;;0.77;;
72864;SDS011;61000;48.120;11.548;2023-08-06T09:14:15;1.25;;;0.80;;
72864;SDS011;61000;48.120;11.548;2023-08-06T09:16:44;1.17;;;0.90;;
72864;SDS011;61000;48.120;11.548;2023-08-06T09:19:11;1.45;;;0.80;;
72864;SDS011;61000;48.120;11.548;2023-08-06T09:21:38;0.60;;;0.60;;
72864;SDS011;61000;48.120;11.548;2023-08-06T09:24:07;1.00;;;0.60;;
72864;SDS011;61000;48.120;11.548;2023-08-06T09:26:35;0.50;;;0.50;;
72864;SDS011;61000;48.120;11.548;2023-08-06T09:29:04;0.80;;;0.80;;
72864;SDS011;61000;48.120;11.548;2023-08-06T09:31:44;1.15;;;0.60;;
72864;SDS011;61000;48.120;11.548;2023-08-06T09:34:14;1.25;;;0.60;;
72864;SDS011;61000;48.120;11.548;2023-08-06T09:36:43;0.75;;;0.70;;
72864;SDS011;61000;48.120;11.548;2023-08-06T09:39:12;0.50;;;0.50;;
72864;SDS011;61000;48.120;11.548;2023-08-06T09:41:40;1.30;;;0.70;;
72864;SDS011;61000;48.120;11.548;2023-08-06T09:44:12;0.90;;;0.60;;
72864;SDS011;61000;48.120;11.548;2023-08-06T09:46:44;1.00;;;0.60;;
72864;SDS011;61000;48.120;11.548;2023-08-06T09:49:13;0.80;;;0.80;;
72864;SDS011;61000;48.120;11.548;2023-08-06T09:51:40;1.75;;;0.82;;
72864;SDS011;61000;48.120;11.548;2023-08-06T09:54:09;0.63;;;0.43;;
72864;SDS011;61000;48.120;11.548;2023-08-06T09:56:42;2.15;;;0.47;;
72864;SDS011;61000;48.120;11.548;2023-08-06T09:59:09;0.50;;;0.50;;
72864;SDS011;61000;48.120;11.548;2023-08-06T10:01:37;0.73;;;0.40;;
72864;SDS011;61000;48.120;11.548;2023-08-06T10:04:05;1.38;;;0.40;;
72864;SDS011;61000;48.120;11.548;2023-08-06T10:06:34;0.60;;;0.60;;
72864;SDS011;61000;48.120;11.548;2023-08-06T10:09:02;0.40;;;0.40;;
72864;SDS011;61000;48.120;11.548;2023-08-06T10:11:30;2.08;;;0.50;;
72864;SDS011;61000;48.120;11.548;2023-08-06T10:13:58;0.40;;;0.40;;
72864;SDS011;61000;48.120;11.548;2023-08-06T10:16:30;0.47;;;0.47;;
72864;SDS011;61000;48.120;11.548;2023-08-06T10:18:57;0.80;;;0.43;;
72864;SDS011;61000;48.120;11.548;2023-08-06T10:21:26;0.93;;;0.43;;
72864;SDS011;61000;48.120;11.548;2023-08-06T10:23:56;0.95;;;0.45;;
72864;SDS011;61000;48.120;11.548;2023-08-06T10:26:25;0.60;;;0.60;;
72864;SDS011;61000;48.120;11.548;2023-08-06T10:28:52;1.95;;;0.65;;
72864;SDS011;61000;48.120;11.548;2023-08-06T10:31:20;1.65;;;0.65;;
72864;SDS011;61000;48.120;11.548;2023-08-06T10:34:11;0.60;;;0.50;;
72864;SDS011;61000;48.120;11.548;2023-08-06T10:36:39;3.40;;;0.77;;
72864;SDS011;61000;48.120;11.548;2023-08-06T10:39:06;0.47;;;0.47;;
72864;SDS011;61000;48.120;11.548;2023-08-06T10:41:40;0.55;;;0.52;;
72864;SDS011;61000;48.120;11.548;2023-08-06T10:44:09;0.43;;;0.40;;
72864;SDS011;61000;48.120;11.548;2023-08-06T10:46:37;2.15;;;0.50;;
72864;SDS011;61000;48.120;11.548;2023-08-06T10:49:04;0.50;;;0.50;;
72864;SDS011;61000;48.120;11.548;2023-08-06T10:51:32;0.82;;;0.60;;
72864;SDS011;61000;48.120;11.548;2023-08-06T10:54:00;0.60;;;0.60;;
72864;SDS011;61000;48.120;11.548;2023-08-06T10:56:28;1.02;;;0.80;;
72864;SDS011;61000;48.120;11.548;2023-08-06T10:58:56;0.40;;;0.40;;
72864;SDS011;61000;48.120;11.548;2023-08-06T11:01:24;3.03;;;1.05;;
72864;SDS011;61000;48.120;11.548;2023-08-06T11:03:54;0.40;;;0.40;;
72864;SDS011;61000;48.120;11.548;2023-08-06T11:06:22;0.63;;;0.50;;
72864;SDS011;61000;48.120;11.548;2023-08-06T11:08:51;0.40;;;0.40;;
72864;SDS011;61000;48.120;11.548;2023-08-06T11:11:21;0.40;;;0.40;;
72864;SDS011;61000;48.120;11.548;2023-08-06T11:13:49;0.40;;;0.40;;
72864;SDS011;61000;48.120;11.548;2023-08-06T11:16:19;0.47;;;0.47;;
72864;SDS011;61000;48.120;11.548;2023-08-06T11:18:48;1.00;;;0.40;;
72864;SDS011;61000;48.120;11.548;2023-08-06T11:21:18;0.45;;;0.45;;
72864;SDS011;61000;48.120;11.548;2023-08-06T11:23:45;0.40;;;0.40;;
72864;SDS011;61000;48.120;11.548;2023-08-06T11:26:12;0.35;;;0.35;;
72864;SDS011;61000;48.120;11.548;2023-08-06T11:28:45;1.30;;;0.40;;
72864;SDS011;61000;48.120;11.548;2023-08-06T11:31:18;0.40;;;0.40;;
72864;SDS011;61000;48.120;11.548;2023-08-06T11:33:45;0.40;;;0.40;;
72864;SDS011;61000;48.120;11.548;2023-08-06T11:36:12;0.38;;;0.38;;
72864;SDS011;61000;48.120;11.548;2023-08-06T11:38:39;0.65;;;0.45;;
72864;SDS011;61000;48.120;11.548;2023-08-06T11:41:06;0.80;;;0.40;;
72864;SDS011;61000;48.120;11.548;2023-08-06T11:43:33;0.70;;;0.50;;
72864;SDS011;61000;48.120;11.548;2023-08-06T11:46:01;1.42;;;0.47;;
72864;SDS011;61000;48.120;11.548;2023-08-06T11:48:29;0.30;;;0.30;;
72864;SDS011;61000;48.120;11.548;2023-08-06T11:50:56;1.63;;;0.40;;
72864;SDS011;61000;48.120;11.548;2023-08-06T11:53:26;0.40;;;0.40;;
72864;SDS011;61000;48.120;11.548;2023-08-06T11:55:54;0.73;;;0.50;;
72864;SDS011;61000;48.120;11.548;2023-08-06T11:58:21;0.30;;;0.30;;
72864;SDS011;61000;48.120;11.548;2023-08-06T12:00:48;0.50;;;0.50;;
72864;SDS011;61000;48.120;11.548;2023-08-06T12:03:17;0.40;;;0.40;;
72864;SDS011;61000;48.120;11.548;2023-08-06T12:05:45;0.40;;;0.40;;
72864;SDS011;61000;48.120;11.548;2023-08-06T12:08:12;0.50;;;0.50;;
72864;SDS011;61000;48.120;11.548;2023-08-06T12:10:40;0.40;;;0.40;;
72864;SDS011;61000;48.120;11.548;2023-08-06T12:13:07;0.63;;;0.40;;
72864;SDS011;61000;48.120;11.548;2023-08-06T12:15:34;0.50;;;0.50;;
72864;SDS011;61000;48.120;11.548;2023-08-06T12:18:00;0.65;;;0.65;;
72864;SDS011;61000;48.120;11.548;2023-08-06T12:20:29;3.03;;;0.82;;
72864;SDS011;61000;48.120;11.548;2023-08-06T12:22:55;0.45;;;0.45;;
72864;SDS011;61000;48.120;11.548;2023-08-06T12:25:22;0.40;;;0.40;;
72864;SDS011;61000;48.120;11.548;2023-08-06T12:27:49;0.50;;;0.50;;
72864;SDS011;61000;48.120;11.548;2023-08-06T12:30:16;0.50;;;0.50;;
72864;SDS011;61000;48.120;11.548;2023-08-06T12:32:43;2.05;;;0.50;;
72864;SDS011;61000;48.120;11.548;2023-08-06T12:35:10;0.50;;;0.50;;
72864;SDS011;61000;48.120;11.548;2023-08-06T12:37:38;0.60;;;0.60;;
72864;SDS011;61000;48.120;11.548;2023-08-06T12:40:05;2.15;;;0.50;;
72864;SDS011;61000;48.120;11.548;2023-08-06T12:42:33;0.50;;;0.50;;
72864;SDS011;61000;48.120;11.548;2023-08-06T12:45:00;1.70;;;0.50;;
72864;SDS011;61000;48.120;11.548;2023-08-06T12:47:26;0.40;;;0.40;;
72864;SDS011;61000;48.120;11.548;2023-08-06T12:49:53;0.50;;;0.50;;
72864;SDS011;61000;48.120;11.548;2023-08-06T12:52:20;1.58;;;0.60;;
72864;SDS011;61000;48.120;11.548;2023-08-06T12:54:48;0.60;;;0.60;;
72864;SDS011;61000;48.120;11.548;2023-08-06T12:57:15;0.88;;;0.50;;
72864;SDS011;61000;48.120;11.548;2023-08-06T12:59:42;0.65;;;0.65;;
72864;SDS011;61000;48.120;11.548;2023-08-06T13:02:09;0.50;;;0.50;;
72864;SDS011;61000;48.120;11.548;2023-08-06T13:04:36;0.57;;;0.57;;
72864;SDS011;61000;48.120;11.548;2023-08-06T13:07:03;0.60;;;0.60;;
72864;SDS011;61000;48.120;11.548;2023-08-06T13:09:31;2.45;;;0.60;;
72864;SDS011;61000;48.120;11.548;2023-08-06T13:12:00;0.50;;;0.50;;
72864;SDS011;61000;48.120;11.548;2023-08-06T13:14:30;0.50;;;0.50;;
72864;SDS011;61000;48.120;11.548;2023-08-06T13:16:58;2.60;;;0.82;;
72864;SDS011;61000;48.120;11.548;2023-08-06T13:19:31;0.43;;;0.43;;
72864;SDS011;61000;48.120;11.548;2023-08-06T13:21:59;1.88;;;0.85;;
72864;SDS011;61000;48.120;11.548;2023-08-06T13:24:28;0.43;;;0.40;;
72864;SDS011;61000;48.120;11.548;2023-08-06T13:26:56;2.15;;;0.82;;
72864;SDS011;61000;48.120;11.548;2023-08-06T13:29:24;0.40;;;0.40;;
72864;SDS011;61000;48.120;11.548;2023-08-06T13:31:52;0.65;;;0.50;;
72864;SDS011;61000;48.120;11.548;2023-08-06T13:34:19;0.65;;;0.65;;
72864;SDS011;61000;48.120;11.548;2023-08-06T13:36:45;0.50;;;0.50;;
72864;SDS011;61000;48.120;11.548;2023-08-06T13:39:12;0.73;;;0.73;;
72864;SDS011;61000;48.120;11.548;2023-08-06T13:41:41;0.60;;;0.60;;
72864;SDS011;61000;48.120;11.548;2023-08-06T13:44:08;0.70;;;0.70;;
72864;SDS011;61000;48.120;11.548;2023-08-06T13:46:37;0.40;;;0.40;;
72864;SDS011;61000;48.120;11.548;2023-08-06T13:49:04;0.50;;;0.50;;
72864;SDS011;61000;48.120;11.548;2023-08-06T13:51:31;0.82;;;0.65;;
72864;SDS011;61000;48.120;11.548;2023-08-06T13:53:59;0.70;;;0.70;;
72864;SDS011;61000;48.120;11.548;2023-08-06T13:56:26;0.50;;;0.50;;
72864;SDS011;61000;48.120;11.548;2023-08-06T13:58:54;0.70;;;0.70;;
72864;SDS011;61000;48.120;11.548;2023-08-06T14:01:21;0.50;;;0.50;;
72864;SDS011;61000;48.120;11.548;2023-08-06T14:03:49;0.50;;;0.50;;
72864;SDS011;61000;48.120;11.548;2023-08-06T14:06:17;0.40;;;0.40;;
72864;SDS011;61000;48.120;11.548;2023-08-06T14:08:46;0.55;;;0.55;;
72864;SDS011;61000;48.120;11.548;2023-08-06T14:11:13;0.63;;;0.63;;
72864;SDS011;61000;48.120;11.548;2023-08-06T14:13:40;0.60;;;0.60;;
72864;SDS011;61000;48.120;11.548;2023-08-06T14:16:06;0.70;;;0.70;;
72864;SDS011;61000;48.120;11.548;2023-08-06T14:18:34;0.73;;;0.52;;
72864;SDS011;61000;48.120;11.548;2023-08-06T14:21:04;0.60;;;0.60;;
72864;SDS011;61000;48.120;11.548;2023-08-06T14:23:31;0.77;;;0.77;;
72864;SDS011;61000;48.120;11.548;2023-08-06T14:25:58;1.05;;;0.80;;
72864;SDS011;61000;48.120;11.548;2023-08-06T14:28:25;2.10;;;0.70;;
72864;SDS011;61000;48.120;11.548;2023-08-06T14:30:51;0.70;;;0.70;;
72864;SDS011;61000;48.120;11.548;2023-08-06T14:33:18;0.70;;;0.70;;
72864;SDS011;61000;48.120;11.548;2023-08-06T14:35:45;1.02;;;0.80;;
72864;SDS011;61000;48.120;11.548;2023-08-06T14:38:13;1.38;;;0.70;;